Time;durP1;ratioP1;P1;durP2;ratioP2;P2;SDS_P1;SDS_P2;PMS_P1;PMS_P2;Temp;Humidity;BMP_temperature;BMP_pressure;BME280_temperature;BME280_humidity;BME280_pressure;Samples;Min_cycle;Max_cycle;Signal;HPM_P1;HPM_P2
2021/04/27 00:01:23;;;;;;;11.18;4.70;;;6.90;90.60;;;;;;4354421;32;20157;-60
2021/04/27 00:03:49;;;;;;;13.38;5.70;;;6.70;91.10;;;;;;4391950;32;20073;-60
2021/04/27 00:06:15;;;;;;;11.10;5.37;;;6.70;90.80;;;;;;4392464;32;20090;-60
2021/04/27 00:08:41;;;;;;;15.63;6.15;;;6.70;89.40;;;;;;4391502;32;20089;-60
2021/04/27 00:11:08;;;;;;;16.98;5.62;;;6.70;91.90;;;;;;4379118;32;20078;-60
2021/04/27 00:13:35;;;;;;;15.05;6.72;;;6.80;92.30;;;;;;4351333;32;20517;-60
2021/04/27 00:16:01;;;;;;;20.48;7.60;;;6.90;90.80;;;;;;4364285;32;20066;-60
2021/04/27 00:18:27;;;;;;;17.70;7.55;;;6.60;91.20;;;;;;4364174;32;20200;-59
2021/04/27 00:20:53;;;;;;;17.20;7.87;;;6.60;91.70;;;;;;4376671;32;20077;-61
2021/04/27 00:23:20;;;;;;;22.50;8.30;;;6.50;92.30;;;;;;4377894;32;20078;-60
2021/04/27 00:25:46;;;;;;;19.90;7.85;;;6.60;90.90;;;;;;4351929;32;20058;-59
2021/04/27 00:28:12;;;;;;;22.67;8.40;;;6.60;91.80;;;;;;4376572;32;20073;-60
2021/04/27 00:30:39;;;;;;;17.02;7.93;;;6.60;91.90;;;;;;4351923;32;20078;-60
2021/04/27 00:33:05;;;;;;;16.12;7.93;;;6.80;91.70;;;;;;4363668;32;20166;-59
2021/04/27 00:35:32;;;;;;;15.82;8.48;;;6.80;91.80;;;;;;4364445;32;20068;-59
2021/04/27 00:37:58;;;;;;;19.55;8.05;;;6.70;90.90;;;;;;4363608;32;20062;-60
2021/04/27 00:40:26;;;;;;;23.15;8.82;;;6.80;90.70;;;;;;4351268;32;20499;-60
2021/04/27 00:42:53;;;;;;;19.75;8.20;;;6.90;90.60;;;;;;4351857;32;20065;-60
2021/04/27 00:45:23;;;;;;;17.23;8.05;;;6.90;90.30;;;;;;4339998;32;20093;-60
2021/04/27 00:47:50;;;;;;;15.90;8.07;;;6.90;89.70;;;;;;4341871;32;20497;-59
2021/04/27 00:50:19;;;;;;;19.12;8.30;;;7.00;86.40;;;;;;4363737;32;20068;-59
2021/04/27 00:52:46;;;;;;;17.20;6.97;;;7.00;84.60;;;;;;4364146;32;20094;-60
2021/04/27 00:55:13;;;;;;;23.65;8.27;;;7.00;91.50;;;;;;4351792;32;20050;-60
2021/04/27 00:57:39;;;;;;;20.60;7.57;;;6.90;90.50;;;;;;4343055;32;20085;-60
2021/04/27 01:00:10;;;;;;;21.70;7.93;;;7.00;92.10;;;;;;4376287;32;20065;-61
2021/04/27 01:02:36;;;;;;;20.88;7.40;;;7.10;90.20;;;;;;4376851;32;20083;-59
2021/04/27 01:05:14;;;;;;;16.95;7.93;;;7.00;95.10;;;;;;4351667;32;20069;-60
2021/04/27 01:07:53;;;;;;;18.50;7.90;;;7.00;92.40;;;;;;4352250;32;20073;-62
2021/04/27 01:10:22;;;;;;;18.35;8.30;;;7.10;88.80;;;;;;4376407;32;20081;-60
2021/04/27 01:13:07;;;;;;;17.77;7.60;;;7.30;85.40;;;;;;4338210;32;20505;-60
2021/04/27 01:15:33;;;;;;;22.13;7.93;;;7.30;84.60;;;;;;4364283;32;20066;-60
2021/04/27 01:18:00;;;;;;;17.33;7.55;;;7.30;89.30;;;;;;4350899;32;20063;-60
2021/04/27 01:20:43;;;;;;;17.37;7.12;;;7.30;82.50;;;;;;4350696;32;20073;-60
2021/04/27 01:23:24;;;;;;;14.82;7.00;;;7.40;74.90;;;;;;4364248;32;20149;-60
2021/04/27 01:25:57;;;;;;;16.20;7.82;;;7.50;74.70;;;;;;4351824;32;20164;-61
2021/04/27 01:28:24;;;;;;;18.60;8.07;;;7.40;76.50;;;;;;4372010;32;20066;-59
2021/04/27 01:30:51;;;;;;;13.27;6.85;;;7.40;85.30;;;;;;4364348;32;20069;-60
2021/04/27 01:33:21;;;;;;;14.35;7.72;;;7.50;72.00;;;;;;4377859;32;20152;-60
2021/04/27 01:35:48;;;;;;;19.55;8.02;;;7.50;76.60;;;;;;4365290;32;20073;-60
2021/04/27 01:38:16;;;;;;;20.85;7.62;;;7.50;80.50;;;;;;4365036;32;20112;-60
2021/04/27 01:40:42;;;;;;;15.50;6.90;;;7.50;78.90;;;;;;4364706;32;20141;-60
2021/04/27 01:43:08;;;;;;;21.50;7.20;;;7.50;79.80;;;;;;4364937;32;20077;-61
2021/04/27 01:45:34;;;;;;;18.05;7.05;;;7.30;87.40;;;;;;4364315;32;20460;-60
2021/04/27 01:48:01;;;;;;;17.37;6.93;;;7.00;91.50;;;;;;4377908;32;20066;-60
2021/04/27 01:50:27;;;;;;;16.02;6.28;;;7.10;90.10;;;;;;4353316;32;20500;-60
2021/04/27 01:52:56;;;;;;;15.80;6.80;;;7.10;84.80;;;;;;4365416;32;20151;-62
2021/04/27 01:55:23;;;;;;;13.82;6.75;;;7.40;84.00;;;;;;4363675;32;20089;-60
2021/04/27 01:57:50;;;;;;;13.43;6.53;;;7.40;90.70;;;;;;4350607;32;20070;-60
2021/04/27 02:00:20;;;;;;;15.90;7.53;;;7.40;88.40;;;;;;4362571;32;20058;-61
2021/04/27 02:02:48;;;;;;;16.52;7.07;;;7.40;87.50;;;;;;4376416;32;20125;-62
2021/04/27 02:05:14;;;;;;;14.43;6.70;;;7.40;89.10;;;;;;4363148;32;20066;-59
2021/04/27 02:07:41;;;;;;;17.48;7.28;;;7.40;92.50;;;;;;4363109;32;20077;-60
2021/04/27 02:10:11;;;;;;;15.55;7.12;;;7.50;87.00;;;;;;4363196;32;20084;-60
2021/04/27 02:12:39;;;;;;;14.15;6.37;;;7.60;72.30;;;;;;4363533;32;20113;-60
2021/04/27 02:15:11;;;;;;;16.98;5.65;;;7.70;68.30;;;;;;4362858;32;20086;-60
2021/04/27 02:18:06;;;;;;;22.92;5.80;;;7.80;68.00;;;;;;4351286;32;20074;-60
2021/04/27 02:20:32;;;;;;;13.98;4.97;;;7.80;65.90;;;;;;4374908;32;20074;-61
2021/04/27 02:22:58;;;;;;;13.98;4.75;;;7.90;62.40;;;;;;4362421;32;20059;-60
2021/04/27 02:25:24;;;;;;;9.65;4.62;;;7.90;61.40;;;;;;4362530;32;20070;-59
2021/04/27 02:27:53;;;;;;;15.73;5.53;;;7.90;60.80;;;;;;4362910;32;20062;-61
2021/04/27 02:30:22;;;;;;;13.20;5.07;;;7.90;63.50;;;;;;4362458;32;20081;-60
2021/04/27 02:32:49;;;;;;;15.25;5.32;;;7.90;64.00;;;;;;4362684;32;20063;-60
2021/04/27 02:35:17;;;;;;;10.07;4.75;;;8.00;67.00;;;;;;4362159;32;20075;-60
2021/04/27 02:37:45;;;;;;;12.48;4.75;;;8.10;64.70;;;;;;4363277;32;20490;-60
2021/04/27 02:40:13;;;;;;;10.32;4.40;;;8.00;63.50;;;;;;4363500;32;20434;-60
2021/04/27 02:42:40;;;;;;;11.15;4.30;;;8.10;61.80;;;;;;4362759;32;20070;-61
2021/04/27 02:45:08;;;;;;;8.52;3.50;;;8.10;58.60;;;;;;4350023;32;20074;-60
2021/04/27 02:47:34;;;;;;;8.05;3.67;;;8.10;56.60;;;;;;4362275;32;20150;-60
2021/04/27 02:50:01;;;;;;;8.00;3.50;;;8.10;55.60;;;;;;4362176;32;20090;-61
2021/04/27 02:52:27;;;;;;;8.00;3.45;;;8.00;56.40;;;;;;4362797;32;20063;-60
2021/04/27 02:54:53;;;;;;;9.85;3.42;;;8.10;56.00;;;;;;4362427;32;20453;-60
2021/04/27 02:57:20;;;;;;;11.18;4.00;;;8.10;55.70;;;;;;4373165;32;20097;-60
2021/04/27 02:59:46;;;;;;;7.22;3.80;;;8.00;56.00;;;;;;4375075;32;20070;-61
2021/04/27 03:02:12;;;;;;;9.77;3.95;;;8.10;55.50;;;;;;4375099;32;20050;-60
2021/04/27 03:04:38;;;;;;;9.43;4.05;;;8.10;56.40;;;;;;4349707;32;20093;-60
2021/04/27 03:07:04;;;;;;;11.73;4.03;;;8.20;56.00;;;;;;4375821;32;20303;-60
2021/04/27 03:09:31;;;;;;;13.18;4.55;;;8.10;58.00;;;;;;4337655;32;20063;-60
2021/04/27 03:11:58;;;;;;;8.23;3.40;;;8.20;58.50;;;;;;4361697;32;20159;-59
2021/04/27 03:14:24;;;;;;;12.48;4.20;;;8.10;59.20;;;;;;4370610;32;20086;-59
2021/04/27 03:16:50;;;;;;;17.62;5.20;;;8.20;60.50;;;;;;4364380;32;20527;-60
2021/04/27 03:19:17;;;;;;;9.65;4.78;;;8.10;66.70;;;;;;4376872;32;20066;-60
2021/04/27 03:21:43;;;;;;;22.73;7.10;;;8.00;66.70;;;;;;4390821;32;20508;-60
2021/04/27 03:24:09;;;;;;;20.50;6.53;;;8.10;72.80;;;;;;4376874;32;20073;-60
2021/04/27 03:26:36;;;;;;;28.05;7.78;;;8.00;76.70;;;;;;4364616;32;20077;-60
2021/04/27 03:29:04;;;;;;;18.15;6.72;;;8.00;76.30;;;;;;4364573;32;20141;-60
2021/04/27 03:31:32;;;;;;;23.73;8.23;;;7.90;80.00;;;;;;4377140;32;20133;-62
2021/04/27 03:33:59;;;;;;;16.80;6.57;;;7.70;88.70;;;;;;4376958;32;20165;-59
2021/04/27 03:36:25;;;;;;;20.00;6.32;;;7.60;89.60;;;;;;4365109;32;20156;-59
2021/04/27 03:38:51;;;;;;;20.77;6.55;;;7.60;87.20;;;;;;4392076;32;20066;-59
2021/04/27 03:41:17;;;;;;;18.08;7.28;;;7.60;87.30;;;;;;4393376;32;20066;-60
2021/04/27 03:43:44;;;;;;;24.70;7.00;;;7.70;89.90;;;;;;4379428;32;20440;-60
2021/04/27 03:46:10;;;;;;;16.27;6.68;;;7.70;90.10;;;;;;4367074;32;20471;-60
2021/04/27 03:48:36;;;;;;;20.00;6.25;;;8.00;81.80;;;;;;4367687;32;20074;-60
2021/04/27 03:51:02;;;;;;;25.88;7.18;;;8.00;83.70;;;;;;4393396;32;20086;-60
2021/04/27 03:53:29;;;;;;;19.02;6.07;;;7.90;85.60;;;;;;4392325;32;20152;-60
2021/04/27 03:55:55;;;;;;;14.73;6.40;;;7.60;90.60;;;;;;4379263;32;20081;-59
2021/04/27 03:58:21;;;;;;;19.62;6.80;;;7.50;91.10;;;;;;4391598;32;20456;-59
2021/04/27 04:00:47;;;;;;;16.80;5.93;;;7.60;91.60;;;;;;4391446;32;20159;-60
2021/04/27 04:03:13;;;;;;;22.95;6.00;;;7.70;90.40;;;;;;4391981;32;20069;-60
2021/04/27 04:05:39;;;;;;;22.55;7.30;;;7.80;91.00;;;;;;4380431;32;20053;-60
2021/04/27 04:08:06;;;;;;;27.73;6.80;;;7.70;92.30;;;;;;4380641;32;20077;-60
2021/04/27 04:10:33;;;;;;;16.37;6.32;;;7.50;92.50;;;;;;4366550;32;20073;-60
2021/04/27 04:12:59;;;;;;;20.77;7.18;;;7.40;92.80;;;;;;4354638;32;20145;-59
2021/04/27 04:15:25;;;;;;;20.58;6.90;;;7.60;92.20;;;;;;4364276;32;20077;-59
2021/04/27 04:17:51;;;;;;;14.98;5.87;;;7.80;93.90;;;;;;4377046;32;20082;-60
2021/04/27 04:20:21;;;;;;;17.08;5.65;;;7.60;94.50;;;;;;4364283;32;20105;-59
2021/04/27 04:22:48;;;;;;;17.23;6.43;;;7.50;96.40;;;;;;4376859;32;20167;-60
2021/04/27 04:25:15;;;;;;;15.93;5.97;;;7.70;98.50;;;;;;4352920;32;20077;-60
2021/04/27 04:27:42;;;;;;;7.82;4.00;;;7.80;98.40;;;;;;4376453;32;20069;-59
2021/04/27 04:30:18;;;;;;;19.67;5.65;;;8.00;96.10;;;;;;4363538;32;20448;-59
2021/04/27 04:32:44;;;;;;;12.05;4.78;;;8.20;93.90;;;;;;4352388;32;20066;-60
2021/04/27 04:35:11;;;;;;;13.60;4.18;;;8.50;90.50;;;;;;4377479;32;20112;-59
2021/04/27 04:37:38;;;;;;;16.48;4.30;;;8.60;77.40;;;;;;4376567;32;20157;-60
2021/04/27 04:40:06;;;;;;;16.75;4.53;;;8.70;77.60;;;;;;4363548;32;20074;-61
2021/04/27 04:42:32;;;;;;;10.13;3.15;;;8.90;75.60;;;;;;4376288;32;20231;-60
2021/04/27 04:44:58;;;;;;;7.47;3.37;;;9.40;62.90;;;;;;4364831;32;20081;-60
2021/04/27 04:47:24;;;;;;;6.90;2.95;;;9.50;62.20;;;;;;4365130;32;20174;-60
2021/04/27 04:49:51;;;;;;;9.25;2.60;;;9.60;61.80;;;;;;4377929;32;20525;-59
2021/04/27 04:52:17;;;;;;;8.10;3.10;;;9.60;59.30;;;;;;4377698;32;20059;-60
2021/04/27 04:54:43;;;;;;;5.62;2.67;;;9.70;61.00;;;;;;4376395;32;20079;-61
2021/04/27 04:57:09;;;;;;;3.62;2.62;;;9.60;58.30;;;;;;4363572;32;20637;-59
2021/04/27 04:59:36;;;;;;;6.10;2.70;;;9.60;57.10;;;;;;4363739;32;20076;-59
2021/04/27 05:02:02;;;;;;;4.80;2.87;;;9.70;57.00;;;;;;4376034;32;20067;-60
2021/04/27 05:04:28;;;;;;;7.37;2.65;;;9.70;56.10;;;;;;4351297;32;20497;-61
2021/04/27 05:06:59;;;;;;;5.00;2.60;;;9.70;55.80;;;;;;4375593;32;20090;-60
2021/04/27 05:09:25;;;;;;;4.00;2.33;;;9.80;59.10;;;;;;4375780;32;20086;-60
2021/04/27 05:11:53;;;;;;;5.80;1.98;;;9.90;60.00;;;;;;4375518;32;20074;-59
2021/04/27 05:14:19;;;;;;;5.62;2.45;;;10.00;59.60;;;;;;4363467;32;20089;-60
2021/04/27 05:16:45;;;;;;;5.10;2.55;;;10.00;59.50;;;;;;4375813;32;20063;-60
2021/04/27 05:19:12;;;;;;;4.22;2.10;;;9.90;60.40;;;;;;4376035;32;20063;-59
2021/04/27 05:21:39;;;;;;;2.70;1.95;;;10.00;59.20;;;;;;4350717;32;20151;-60
2021/04/27 05:24:07;;;;;;;5.68;2.25;;;9.90;59.10;;;;;;4350441;32;20062;-61
2021/04/27 05:26:33;;;;;;;4.85;2.08;;;9.70;61.70;;;;;;4363427;32;20092;-60
2021/04/27 05:28:59;;;;;;;3.10;2.25;;;9.50;62.80;;;;;;4369213;32;20251;-60
2021/04/27 05:31:26;;;;;;;3.58;2.30;;;9.60;62.70;;;;;;4363026;32;20070;-59
2021/04/27 05:33:52;;;;;;;4.87;2.10;;;9.60;63.00;;;;;;4370080;32;20100;-62
2021/04/27 05:36:18;;;;;;;3.90;2.30;;;9.90;60.20;;;;;;4368692;32;20066;-64
2021/04/27 05:38:44;;;;;;;4.00;2.05;;;9.90;58.80;;;;;;4389601;32;20085;-63
2021/04/27 05:41:12;;;;;;;6.00;2.53;;;10.00;57.80;;;;;;4364257;32;20151;-64
2021/04/27 05:43:38;;;;;;;4.80;2.12;;;10.00;63.10;;;;;;4376711;32;20463;-63
2021/04/27 05:46:04;;;;;;;3.92;2.37;;;9.80;74.40;;;;;;4377332;32;20098;-61
2021/04/27 05:48:31;;;;;;;2.65;2.25;;;9.80;68.80;;;;;;4393150;32;20507;-61
2021/04/27 05:50:57;;;;;;;3.60;2.15;;;10.00;64.80;;;;;;4369263;32;20066;-62
2021/04/27 05:53:24;;;;;;;4.00;2.00;;;10.00;63.10;;;;;;4376811;32;20146;-62
2021/04/27 05:55:50;;;;;;;4.03;2.03;;;9.80;64.60;;;;;;4370257;32;20074;-63
2021/04/27 05:58:16;;;;;;;2.47;1.85;;;10.00;64.60;;;;;;4375383;32;20080;-64
2021/04/27 06:00:42;;;;;;;3.45;2.10;;;9.80;64.00;;;;;;4372742;32;20824;-64
2021/04/27 06:03:08;;;;;;;4.57;2.22;;;10.30;64.70;;;;;;4374348;32;20051;-63
2021/04/27 06:05:34;;;;;;;5.28;1.90;;;10.00;65.20;;;;;;4377202;32;20054;-64
2021/04/27 06:08:01;;;;;;;3.95;1.85;;;9.90;66.40;;;;;;4381656;32;20146;-63
2021/04/27 06:10:27;;;;;;;3.20;1.87;;;9.60;71.50;;;;;;4388319;32;20081;-63
2021/04/27 06:12:53;;;;;;;6.45;2.17;;;9.80;74.50;;;;;;4361208;32;20070;-63
2021/04/27 06:15:19;;;;;;;4.18;2.28;;;9.90;72.50;;;;;;4382340;32;20065;-65
2021/04/27 06:17:45;;;;;;;4.12;1.90;;;10.00;77.40;;;;;;4384190;32;20084;-64
2021/04/27 06:20:12;;;;;;;5.45;2.47;;;9.90;75.70;;;;;;4364298;32;20179;-64
2021/04/27 06:22:38;;;;;;;3.65;2.35;;;9.60;83.60;;;;;;4375934;32;20085;-64
2021/04/27 06:25:07;;;;;;;3.05;2.00;;;9.70;86.70;;;;;;4356650;32;20062;-64
2021/04/27 06:27:33;;;;;;;2.55;1.85;;;9.50;94.20;;;;;;4361717;32;20094;-64
2021/04/27 06:30:00;;;;;;;3.33;2.05;;;9.30;95.70;;;;;;4360823;32;20153;-67
2021/04/27 06:32:27;;;;;;;3.05;1.95;;;9.00;98.70;;;;;;4365457;32;20074;-63
2021/04/27 06:34:54;;;;;;;3.67;2.03;;;9.00;99.90;;;;;;4376958;32;20077;-65
2021/04/27 06:37:20;;;;;;;2.28;1.90;;;9.30;99.90;;;;;;4363824;32;20162;-65
2021/04/27 06:39:46;;;;;;;2.37;1.98;;;8.80;99.90;;;;;;4376022;32;20449;-62
2021/04/27 06:42:13;;;;;;;3.22;2.10;;;9.10;99.90;;;;;;4370853;32;20072;-66
2021/04/27 06:44:39;;;;;;;3.92;2.03;;;8.80;99.90;;;;;;4374410;32;20101;-64
2021/04/27 06:47:06;;;;;;;2.92;2.12;;;8.80;99.90;;;;;;4374577;32;20156;-62
2021/04/27 06:49:33;;;;;;;2.67;2.10;;;8.90;99.90;;;;;;4355967;32;20082;-64
2021/04/27 06:51:59;;;;;;;2.75;2.03;;;8.90;99.90;;;;;;4366692;32;20070;-65
2021/04/27 06:54:26;;;;;;;3.53;1.80;;;8.70;99.90;;;;;;4377382;32;20093;-66
2021/04/27 06:56:52;;;;;;;4.12;1.92;;;8.80;99.90;;;;;;4344993;32;20083;-64
2021/04/27 06:59:20;;;;;;;3.42;2.10;;;8.70;99.90;;;;;;4356545;32;20155;-61
2021/04/27 07:01:48;;;;;;;2.33;1.70;;;8.80;99.90;;;;;;4350321;32;20146;-61
2021/04/27 07:04:14;;;;;;;3.58;1.80;;;8.70;99.90;;;;;;4362195;32;20073;-65
2021/04/27 07:06:40;;;;;;;3.10;1.95;;;8.70;99.90;;;;;;4388847;32;20132;-65
2021/04/27 07:09:09;;;;;;;2.05;1.60;;;8.40;99.90;;;;;;4387620;32;20057;-64
2021/04/27 07:11:35;;;;;;;2.25;1.95;;;8.60;99.90;;;;;;4363655;32;20151;-63
2021/04/27 07:14:01;;;;;;;2.35;1.70;;;8.80;99.90;;;;;;4384092;32;20222;-64
2021/04/27 07:16:28;;;;;;;4.93;2.00;;;8.40;99.90;;;;;;4358566;32;20078;-66
2021/04/27 07:18:54;;;;;;;3.05;1.60;;;8.50;99.90;;;;;;4367301;32;20097;-64
2021/04/27 07:21:48;;;;;;;2.72;1.87;;;8.60;99.90;;;;;;4351405;32;20073;-62
2021/04/27 07:24:14;;;;;;;2.80;1.73;;;8.70;99.90;;;;;;4379552;32;20508;-60
2021/04/27 07:26:41;;;;;;;2.50;2.20;;;8.80;99.90;;;;;;4361929;32;20102;-63
2021/04/27 07:29:09;;;;;;;2.35;1.52;;;8.80;99.90;;;;;;4332389;32;21748;-63
2021/04/27 07:31:36;;;;;;;3.62;1.85;;;9.10;99.90;;;;;;4361477;32;20069;-62
2021/04/27 07:34:06;;;;;;;3.55;1.67;;;8.80;99.90;;;;;;4377724;32;20098;-63
2021/04/27 07:36:33;;;;;;;2.95;1.65;;;8.60;99.90;;;;;;4353949;32;20082;-63
2021/04/27 07:39:00;;;;;;;2.85;1.60;;;8.70;99.90;;;;;;4373370;32;20073;-64
2021/04/27 07:41:28;;;;;;;2.97;1.70;;;8.70;99.90;;;;;;4377078;32;20517;-67
2021/04/27 07:43:54;;;;;;;2.33;1.83;;;8.70;99.90;;;;;;4362354;32;20164;-64
2021/04/27 07:46:20;;;;;;;3.75;1.87;;;8.80;99.90;;;;;;4376737;32;20062;-63
2021/04/27 07:48:47;;;;;;;3.55;2.00;;;8.50;99.90;;;;;;4366240;32;20100;-64
2021/04/27 07:51:14;;;;;;;2.05;1.55;;;8.50;99.90;;;;;;4366414;32;20061;-63
2021/04/27 07:53:41;;;;;;;2.30;1.60;;;8.40;99.90;;;;;;4374857;32;20147;-66
2021/04/27 07:56:07;;;;;;;3.22;1.87;;;8.50;99.90;;;;;;4364777;32;20062;-64
2021/04/27 07:58:34;;;;;;;3.58;1.70;;;8.20;99.90;;;;;;4379658;32;20094;-65
2021/04/27 08:01:00;;;;;;;2.30;2.03;;;8.60;99.90;;;;;;4382514;32;20117;-64
2021/04/27 08:03:27;;;;;;;2.33;1.73;;;8.50;99.90;;;;;;4366385;32;20117;-65
2021/04/27 08:05:54;;;;;;;4.05;1.67;;;8.70;99.90;;;;;;4374302;32;20154;-63
2021/04/27 08:08:20;;;;;;;2.30;1.70;;;8.80;99.90;;;;;;4369114;32;20149;-65
2021/04/27 08:10:47;;;;;;;1.65;1.52;;;8.50;99.90;;;;;;4364197;32;20502;-63
2021/04/27 08:13:13;;;;;;;2.50;1.70;;;8.50;99.90;;;;;;4350650;32;20078;-63
2021/04/27 08:15:41;;;;;;;2.83;2.00;;;8.80;99.90;;;;;;4365245;32;20078;-63
2021/04/27 08:18:08;;;;;;;3.42;1.98;;;8.60;99.90;;;;;;4378182;32;20051;-62
2021/04/27 08:20:34;;;;;;;3.08;2.35;;;8.40;99.90;;;;;;4365035;32;20170;-67
2021/04/27 08:23:01;;;;;;;3.30;2.20;;;8.10;99.90;;;;;;4348885;32;20093;-63
2021/04/27 08:25:32;;;;;;;3.50;2.10;;;7.80;99.90;;;;;;4361476;32;20076;-66
2021/04/27 08:27:58;;;;;;;3.30;2.10;;;8.50;99.90;;;;;;4385373;32;20082;-63
2021/04/27 08:30:25;;;;;;;3.75;2.15;;;8.40;99.90;;;;;;4358964;32;20085;-59
2021/04/27 08:32:52;;;;;;;2.95;2.10;;;8.50;99.90;;;;;;4374193;32;20069;-59
2021/04/27 08:35:19;;;;;;;2.33;1.87;;;8.40;99.90;;;;;;4377517;32;20101;-58
2021/04/27 08:37:45;;;;;;;2.85;2.15;;;8.70;99.90;;;;;;4379241;32;20065;-61
2021/04/27 08:40:13;;;;;;;3.47;2.05;;;8.60;99.90;;;;;;4365693;32;20102;-58
2021/04/27 08:42:39;;;;;;;3.58;2.33;;;8.80;99.90;;;;;;4376266;32;20070;-61
2021/04/27 08:45:08;;;;;;;3.80;2.58;;;8.90;99.90;;;;;;4375400;32;20098;-59
2021/04/27 08:47:35;;;;;;;3.08;2.30;;;8.70;99.90;;;;;;4358409;32;20635;-58
2021/04/27 08:50:02;;;;;;;3.45;2.47;;;8.50;99.90;;;;;;4376828;32;20090;-61
2021/04/27 08:52:28;;;;;;;4.55;2.70;;;8.40;99.90;;;;;;4372556;32;20109;-60
2021/04/27 08:54:55;;;;;;;3.53;2.60;;;8.40;99.90;;;;;;4379145;32;20117;-60
2021/04/27 08:57:21;;;;;;;3.50;2.60;;;8.20;99.90;;;;;;4371232;32;20501;-60
2021/04/27 08:59:47;;;;;;;2.42;2.22;;;8.40;99.90;;;;;;4382000;32;20098;-60
2021/04/27 09:02:13;;;;;;;3.83;2.85;;;8.30;99.90;;;;;;4355265;32;20081;-59
2021/04/27 09:04:48;;;;;;;5.28;2.72;;;8.20;99.90;;;;;;4393181;32;20544;-61
2021/04/27 09:07:17;;;;;;;3.35;2.65;;;8.20;99.90;;;;;;4353354;32;20098;-59
2021/04/27 09:09:52;;;;;;;4.55;2.80;;;8.30;99.90;;;;;;4372626;32;20065;-61
2021/04/27 09:12:23;;;;;;;4.65;2.90;;;8.40;99.90;;;;;;4350523;32;20074;-61
2021/04/27 09:14:50;;;;;;;3.50;2.50;;;8.10;99.90;;;;;;4371203;32;20080;-60
2021/04/27 09:17:17;;;;;;;3.35;2.87;;;8.30;99.90;;;;;;4361237;32;20529;-60
2021/04/27 09:19:50;;;;;;;5.05;3.40;;;8.20;99.90;;;;;;4374858;32;20169;-59
2021/04/27 09:22:33;;;;;;;3.70;2.78;;;8.10;99.90;;;;;;4376560;32;20444;-61
2021/04/27 09:25:01;;;;;;;2.85;2.55;;;8.00;99.90;;;;;;4351530;32;20157;-57
2021/04/27 09:27:32;;;;;;;3.22;2.65;;;7.80;99.90;;;;;;4365212;32;20086;-59
2021/04/27 09:30:16;;;;;;;3.28;2.65;;;8.00;99.90;;;;;;4374147;32;20096;-61
2021/04/27 09:32:44;;;;;;;5.60;3.30;;;8.10;99.90;;;;;;4386134;32;20073;-61
2021/04/27 09:35:50;;;;;;;3.55;2.80;;;8.10;99.90;;;;;;4362177;32;20074;-57
2021/04/27 09:38:26;;;;;;;3.45;2.75;;;8.30;99.90;;;;;;4378162;32;20082;-66
2021/04/27 09:40:58;;;;;;;3.40;2.53;;;8.20;99.90;;;;;;4393543;32;20066;-62
2021/04/27 09:43:33;;;;;;;3.20;2.55;;;7.90;99.90;;;;;;4366597;32;20058;-61
2021/04/27 09:46:01;;;;;;;3.85;2.67;;;8.00;99.90;;;;;;4333125;32;20063;-59
2021/04/27 09:48:38;;;;;;;4.30;2.67;;;8.00;99.90;;;;;;4369757;32;20186;-60
2021/04/27 09:51:28;;;;;;;3.78;2.85;;;8.00;99.90;;;;;;4384833;32;20114;-58
2021/04/27 09:54:00;;;;;;;4.57;2.72;;;7.80;99.90;;;;;;4378441;32;20094;-59
2021/04/27 09:56:43;;;;;;;6.97;2.92;;;7.70;99.90;;;;;;4358832;32;20085;-65
2021/04/27 09:59:29;;;;;;;4.03;2.60;;;7.80;99.90;;;;;;4383119;32;20089;-57
2021/04/27 10:01:56;;;;;;;4.23;2.20;;;7.90;99.90;;;;;;4366599;32;20069;-60
2021/04/27 10:04:26;;;;;;;2.10;1.83;;;7.90;99.90;;;;;;4371503;32;20269;-58
2021/04/27 10:06:53;;;;;;;2.42;2.08;;;7.80;99.90;;;;;;4357046;32;20534;-60
2021/04/27 10:09:19;;;;;;;7.00;2.45;;;8.00;99.90;;;;;;4339353;32;20144;-59
2021/04/27 10:11:47;;;;;;;4.60;2.50;;;7.80;99.90;;;;;;4353195;32;20089;-60
2021/04/27 10:14:14;;;;;;;3.20;2.40;;;8.10;99.90;;;;;;4375740;32;20158;-59
2021/04/27 10:16:40;;;;;;;3.25;2.37;;;8.10;99.90;;;;;;4362485;32;20164;-59
2021/04/27 10:19:08;;;;;;;3.78;2.60;;;8.10;99.90;;;;;;4352044;32;20500;-58
2021/04/27 10:21:37;;;;;;;3.55;2.05;;;8.00;99.90;;;;;;4356895;32;20197;-60
2021/04/27 10:24:15;;;;;;;2.62;2.15;;;7.90;99.90;;;;;;4372279;32;20166;-57
2021/04/27 10:26:46;;;;;;;2.37;2.10;;;7.90;99.90;;;;;;4375216;32;20074;-59
2021/04/27 10:29:21;;;;;;;2.87;2.20;;;7.90;99.90;;;;;;4373272;32;20055;-60
2021/04/27 10:32:08;;;;;;;2.45;2.20;;;7.90;99.90;;;;;;4371511;32;20076;-61
2021/04/27 10:34:34;;;;;;;4.20;2.15;;;7.80;99.90;;;;;;4374178;32;20082;-60
2021/04/27 10:37:03;;;;;;;5.00;2.37;;;8.00;99.90;;;;;;4368725;32;20090;-60
2021/04/27 10:39:39;;;;;;;4.28;2.03;;;7.90;99.90;;;;;;4379080;32;20070;-60
2021/04/27 10:42:31;;;;;;;2.72;1.98;;;7.80;99.90;;;;;;4365287;32;20128;-60
2021/04/27 10:45:02;;;;;;;2.92;2.00;;;7.80;99.90;;;;;;4369793;32;20097;-59
2021/04/27 10:47:44;;;;;;;2.40;2.10;;;7.80;99.90;;;;;;4371799;32;20429;-59
2021/04/27 10:50:27;;;;;;;2.65;2.15;;;7.70;99.90;;;;;;4378400;32;20620;-57
2021/04/27 10:52:53;;;;;;;3.58;2.12;;;7.80;99.90;;;;;;4371354;32;20070;-59
2021/04/27 10:55:33;;;;;;;3.35;2.17;;;7.70;99.90;;;;;;4365167;32;20077;-58
2021/04/27 10:58:03;;;;;;;3.42;2.28;;;7.80;99.90;;;;;;4365391;32;20145;-65
2021/04/27 11:00:43;;;;;;;4.07;2.17;;;7.90;99.90;;;;;;4365816;32;20197;-59
2021/04/27 11:03:23;;;;;;;3.83;2.60;;;8.20;99.90;;;;;;4371387;32;20061;-60
2021/04/27 11:06:00;;;;;;;3.50;2.30;;;8.30;99.90;;;;;;4366645;32;20082;-55
2021/04/27 11:08:50;;;;;;;5.30;2.37;;;8.30;99.90;;;;;;4380662;32;20159;-62
2021/04/27 11:11:31;;;;;;;4.47;2.22;;;8.20;99.90;;;;;;4373614;32;20137;-59
2021/04/27 11:14:19;;;;;;;4.00;2.72;;;8.20;99.90;;;;;;4373051;32;20522;-61
2021/04/27 11:16:54;;;;;;;4.03;2.25;;;8.40;99.90;;;;;;4376420;32;20085;-58
2021/04/27 11:19:23;;;;;;;5.72;2.58;;;8.50;99.90;;;;;;4360825;32;20082;-63
2021/04/27 11:21:54;;;;;;;3.22;2.60;;;8.60;99.90;;;;;;4390517;32;20126;-61
2021/04/27 11:24:36;;;;;;;4.68;2.55;;;8.00;99.90;;;;;;4358055;32;20078;-66
2021/04/27 11:27:03;;;;;;;4.85;2.47;;;8.30;99.90;;;;;;4395798;32;20077;-63
2021/04/27 11:29:31;;;;;;;2.30;2.10;;;8.20;99.90;;;;;;4372283;32;20105;-61
2021/04/27 11:32:10;;;;;;;7.35;4.00;;;8.30;99.90;;;;;;4382550;32;20516;-62
2021/04/27 11:34:57;;;;;;;3.03;2.35;;;8.50;99.90;;;;;;4380067;32;20058;-62
2021/04/27 11:37:38;;;;;;;3.72;2.53;;;8.30;99.90;;;;;;4380664;32;20069;-63
2021/04/27 11:40:25;;;;;;;2.97;2.42;;;8.10;99.90;;;;;;4370001;32;20078;-62
2021/04/27 11:43:00;;;;;;;6.85;3.17;;;8.30;99.90;;;;;;4382967;32;20077;-67
2021/04/27 11:45:37;;;;;;;4.05;2.50;;;8.30;99.90;;;;;;4370663;32;20210;-62
2021/04/27 11:48:04;;;;;;;3.70;2.30;;;8.50;99.90;;;;;;4384306;32;20122;-61
2021/04/27 11:50:32;;;;;;;4.25;2.40;;;8.70;99.90;;;;;;4364859;32;20085;-62
2021/04/27 11:53:07;;;;;;;5.45;2.92;;;8.50;99.90;;;;;;4384481;32;20158;-62
2021/04/27 11:55:50;;;;;;;4.10;2.50;;;8.80;99.90;;;;;;4370718;32;20066;-63
2021/04/27 11:58:24;;;;;;;5.53;2.50;;;8.70;99.90;;;;;;4351725;32;20131;-62
2021/04/27 12:00:57;;;;;;;3.20;2.60;;;8.40;99.90;;;;;;4381407;32;20072;-63
2021/04/27 12:03:34;;;;;;;4.37;2.33;;;8.20;99.90;;;;;;4385529;32;20054;-62
2021/04/27 12:06:06;;;;;;;3.33;2.62;;;8.10;99.90;;;;;;4382620;32;20061;-63
2021/04/27 12:08:39;;;;;;;4.55;2.58;;;8.00;99.90;;;;;;4382542;32;20617;-63
2021/04/27 12:11:22;;;;;;;3.80;2.33;;;8.00;99.90;;;;;;4375351;32;20192;-62
2021/04/27 12:14:08;;;;;;;4.37;2.60;;;8.10;99.90;;;;;;4351208;32;20066;-62
2021/04/27 12:16:40;;;;;;;4.62;2.83;;;8.00;99.90;;;;;;4379309;32;20077;-62
2021/04/27 12:19:13;;;;;;;4.20;2.60;;;8.00;99.90;;;;;;4372373;32;20198;-62
2021/04/27 12:21:48;;;;;;;4.00;3.08;;;8.30;99.90;;;;;;4381570;32;20074;-62
2021/04/27 12:24:21;;;;;;;3.65;2.70;;;8.40;99.90;;;;;;4374574;32;20062;-63
2021/04/27 12:26:54;;;;;;;3.12;2.70;;;8.50;99.90;;;;;;4366125;32;20065;-63
2021/04/27 12:29:35;;;;;;;6.28;2.50;;;8.70;99.90;;;;;;4377076;32;20102;-62
2021/04/27 12:32:13;;;;;;;4.15;2.62;;;9.00;99.90;;;;;;4373394;32;20142;-61
2021/04/27 12:35:05;;;;;;;5.47;2.60;;;9.20;99.90;;;;;;4367681;32;20105;-62
2021/04/27 12:37:43;;;;;;;4.05;2.58;;;9.40;99.90;;;;;;4359337;32;20542;-63
2021/04/27 12:40:17;;;;;;;3.75;2.60;;;9.70;99.90;;;;;;4349638;32;20137;-62
2021/04/27 12:42:46;;;;;;;5.40;2.75;;;9.80;99.90;;;;;;4369947;32;20147;-63
2021/04/27 12:45:13;;;;;;;3.80;2.53;;;9.70;99.90;;;;;;4379814;32;20127;-63
2021/04/27 12:47:39;;;;;;;3.33;2.40;;;9.50;99.90;;;;;;4354746;32;20077;-65
2021/04/27 12:50:10;;;;;;;2.65;2.28;;;9.20;99.90;;;;;;4376231;32;20102;-63
2021/04/27 12:53:00;;;;;;;2.53;2.33;;;9.60;99.90;;;;;;4373042;32;20204;-64
2021/04/27 12:55:31;;;;;;;2.50;2.30;;;9.20;99.90;;;;;;4371585;32;20177;-59
2021/04/27 12:58:12;;;;;;;4.25;2.35;;;9.20;99.90;;;;;;4353328;32;20480;-59
2021/04/27 13:00:54;;;;;;;4.57;2.42;;;8.90;99.90;;;;;;4362129;32;20159;-56
2021/04/27 13:03:29;;;;;;;3.60;2.60;;;9.00;99.90;;;;;;4370115;32;20086;-57
2021/04/27 13:05:56;;;;;;;4.30;2.40;;;9.20;99.90;;;;;;4359186;32;20186;-59